sensor_id;sensor_type;location;lat;lon;timestamp;P1;durP1;ratioP1;P2;durP2;ratioP2
64235;SDS011;50564;47.402;9.740;2023-02-11T00:00:34;4.68;;;2.78;;
64235;SDS011;50564;47.402;9.740;2023-02-11T00:05:37;6.30;;;2.97;;
64235;SDS011;50564;47.402;9.740;2023-02-11T00:10:38;4.95;;;2.67;;
64235;SDS011;50564;47.402;9.740;2023-02-11T00:15:39;4.57;;;2.50;;
64235;SDS011;50564;47.402;9.740;2023-02-11T00:20:40;6.20;;;2.90;;
64235;SDS011;50564;47.402;9.740;2023-02-11T00:25:41;4.07;;;2.45;;
64235;SDS011;50564;47.402;9.740;2023-02-11T00:30:43;5.00;;;2.42;;
64235;SDS011;50564;47.402;9.740;2023-02-11T00:35:44;5.60;;;2.63;;
64235;SDS011;50564;47.402;9.740;2023-02-11T00:40:44;4.32;;;2.75;;
64235;SDS011;50564;47.402;9.740;2023-02-11T00:45:45;6.22;;;3.13;;
64235;SDS011;50564;47.402;9.740;2023-02-11T00:50:46;6.80;;;3.53;;
64235;SDS011;50564;47.402;9.740;2023-02-11T00:55:46;4.78;;;3.10;;
64235;SDS011;50564;47.402;9.740;2023-02-11T01:00:47;6.40;;;3.03;;
64235;SDS011;50564;47.402;9.740;2023-02-11T01:05:48;6.90;;;3.15;;
64235;SDS011;50564;47.402;9.740;2023-02-11T01:10:56;4.78;;;2.75;;
64235;SDS011;50564;47.402;9.740;2023-02-11T01:15:58;5.13;;;2.88;;
64235;SDS011;50564;47.402;9.740;2023-02-11T01:20:59;5.25;;;2.70;;
64235;SDS011;50564;47.402;9.740;2023-02-11T01:26:00;6.00;;;3.35;;
64235;SDS011;50564;47.402;9.740;2023-02-11T01:31:02;8.73;;;4.70;;
64235;SDS011;50564;47.402;9.740;2023-02-11T01:36:06;12.10;;;6.30;;
64235;SDS011;50564;47.402;9.740;2023-02-11T01:41:08;13.13;;;6.85;;
64235;SDS011;50564;47.402;9.740;2023-02-11T01:57:01;12.40;;;7.18;;
64235;SDS011;50564;47.402;9.740;2023-02-11T02:02:57;12.02;;;6.20;;
64235;SDS011;50564;47.402;9.740;2023-02-11T02:13:11;6.88;;;3.50;;
64235;SDS011;50564;47.402;9.740;2023-02-11T02:23:41;5.05;;;2.70;;
64235;SDS011;50564;47.402;9.740;2023-02-11T02:29:20;7.57;;;2.90;;
64235;SDS011;50564;47.402;9.740;2023-02-11T02:34:43;4.95;;;2.60;;
64235;SDS011;50564;47.402;9.740;2023-02-11T02:39:56;7.13;;;3.97;;
64235;SDS011;50564;47.402;9.740;2023-02-11T02:44:59;8.93;;;4.97;;
64235;SDS011;50564;47.402;9.740;2023-02-11T02:49:59;10.23;;;5.07;;
64235;SDS011;50564;47.402;9.740;2023-02-11T03:10:49;5.25;;;3.35;;
64235;SDS011;50564;47.402;9.740;2023-02-11T03:15:51;4.75;;;2.70;;
64235;SDS011;50564;47.402;9.740;2023-02-11T03:20:54;5.25;;;2.85;;
64235;SDS011;50564;47.402;9.740;2023-02-11T03:25:57;3.40;;;2.15;;
64235;SDS011;50564;47.402;9.740;2023-02-11T03:36:15;9.05;;;3.35;;
64235;SDS011;50564;47.402;9.740;2023-02-11T03:41:21;5.38;;;3.00;;
64235;SDS011;50564;47.402;9.740;2023-02-11T03:46:26;4.78;;;2.75;;
64235;SDS011;50564;47.402;9.740;2023-02-11T03:51:30;5.40;;;2.93;;
64235;SDS011;50564;47.402;9.740;2023-02-11T03:56:34;4.95;;;2.40;;
64235;SDS011;50564;47.402;9.740;2023-02-11T04:01:39;4.67;;;2.57;;
64235;SDS011;50564;47.402;9.740;2023-02-11T04:06:40;4.15;;;2.63;;
64235;SDS011;50564;47.402;9.740;2023-02-11T04:11:40;4.00;;;2.58;;
64235;SDS011;50564;47.402;9.740;2023-02-11T04:16:41;5.15;;;2.55;;
64235;SDS011;50564;47.402;9.740;2023-02-11T04:21:41;6.15;;;2.83;;
64235;SDS011;50564;47.402;9.740;2023-02-11T04:26:42;5.68;;;3.15;;
64235;SDS011;50564;47.402;9.740;2023-02-11T04:31:43;3.88;;;2.25;;
64235;SDS011;50564;47.402;9.740;2023-02-11T04:36:44;3.67;;;2.15;;
64235;SDS011;50564;47.402;9.740;2023-02-11T04:41:44;2.92;;;1.98;;
64235;SDS011;50564;47.402;9.740;2023-02-11T04:46:45;3.85;;;2.40;;
64235;SDS011;50564;47.402;9.740;2023-02-11T04:51:46;5.22;;;2.90;;
64235;SDS011;50564;47.402;9.740;2023-02-11T04:56:46;6.82;;;3.70;;
64235;SDS011;50564;47.402;9.740;2023-02-11T05:01:48;4.78;;;2.60;;
64235;SDS011;50564;47.402;9.740;2023-02-11T05:06:49;7.78;;;3.47;;
64235;SDS011;50564;47.402;9.740;2023-02-11T05:11:50;8.23;;;2.75;;
64235;SDS011;50564;47.402;9.740;2023-02-11T05:16:50;5.43;;;2.85;;
64235;SDS011;50564;47.402;9.740;2023-02-11T05:21:51;5.38;;;3.30;;
64235;SDS011;50564;47.402;9.740;2023-02-11T05:26:52;4.03;;;2.58;;
64235;SDS011;50564;47.402;9.740;2023-02-11T05:31:53;4.78;;;2.70;;
64235;SDS011;50564;47.402;9.740;2023-02-11T05:36:53;7.63;;;3.10;;
64235;SDS011;50564;47.402;9.740;2023-02-11T05:41:54;4.43;;;2.55;;
64235;SDS011;50564;47.402;9.740;2023-02-11T05:46:55;5.07;;;3.33;;
64235;SDS011;50564;47.402;9.740;2023-02-11T05:51:56;10.00;;;5.68;;
64235;SDS011;50564;47.402;9.740;2023-02-11T05:56:56;11.00;;;6.43;;
64235;SDS011;50564;47.402;9.740;2023-02-11T06:01:57;12.98;;;5.60;;
64235;SDS011;50564;47.402;9.740;2023-02-11T06:06:58;11.65;;;6.63;;
64235;SDS011;50564;47.402;9.740;2023-02-11T06:11:58;12.15;;;8.00;;
64235;SDS011;50564;47.402;9.740;2023-02-11T06:16:59;10.40;;;6.80;;
64235;SDS011;50564;47.402;9.740;2023-02-11T06:22:00;10.57;;;6.20;;
64235;SDS011;50564;47.402;9.740;2023-02-11T06:27:02;11.02;;;6.43;;
64235;SDS011;50564;47.402;9.740;2023-02-11T06:32:03;11.68;;;7.47;;
64235;SDS011;50564;47.402;9.740;2023-02-11T06:37:04;11.15;;;7.10;;
64235;SDS011;50564;47.402;9.740;2023-02-11T06:42:05;13.82;;;8.18;;
64235;SDS011;50564;47.402;9.740;2023-02-11T06:47:06;16.83;;;9.32;;
64235;SDS011;50564;47.402;9.740;2023-02-11T06:52:06;18.90;;;12.30;;
64235;SDS011;50564;47.402;9.740;2023-02-11T06:57:07;21.85;;;13.55;;
64235;SDS011;50564;47.402;9.740;2023-02-11T07:02:08;22.92;;;13.57;;
64235;SDS011;50564;47.402;9.740;2023-02-11T07:07:09;25.88;;;15.30;;
64235;SDS011;50564;47.402;9.740;2023-02-11T07:12:10;30.38;;;18.55;;
64235;SDS011;50564;47.402;9.740;2023-02-11T07:17:10;24.42;;;14.32;;
64235;SDS011;50564;47.402;9.740;2023-02-11T07:22:11;23.92;;;13.70;;
64235;SDS011;50564;47.402;9.740;2023-02-11T07:27:12;20.35;;;13.07;;
64235;SDS011;50564;47.402;9.740;2023-02-11T07:32:12;23.90;;;14.50;;
64235;SDS011;50564;47.402;9.740;2023-02-11T07:37:13;22.38;;;15.35;;
64235;SDS011;50564;47.402;9.740;2023-02-11T07:42:14;23.70;;;15.38;;
64235;SDS011;50564;47.402;9.740;2023-02-11T07:47:15;17.27;;;10.45;;
64235;SDS011;50564;47.402;9.740;2023-02-11T07:52:16;18.67;;;11.18;;
64235;SDS011;50564;47.402;9.740;2023-02-11T07:57:17;26.27;;;17.13;;
64235;SDS011;50564;47.402;9.740;2023-02-11T08:02:17;30.73;;;19.52;;
64235;SDS011;50564;47.402;9.740;2023-02-11T08:07:18;42.33;;;21.90;;
64235;SDS011;50564;47.402;9.740;2023-02-11T08:12:19;46.78;;;26.45;;
64235;SDS011;50564;47.402;9.740;2023-02-11T08:17:19;41.22;;;23.40;;
64235;SDS011;50564;47.402;9.740;2023-02-11T08:22:20;21.42;;;12.88;;
64235;SDS011;50564;47.402;9.740;2023-02-11T08:27:21;16.52;;;8.00;;
64235;SDS011;50564;47.402;9.740;2023-02-11T08:32:21;18.98;;;7.72;;
64235;SDS011;50564;47.402;9.740;2023-02-11T08:37:24;15.52;;;8.20;;
64235;SDS011;50564;47.402;9.740;2023-02-11T08:42:25;13.98;;;8.07;;
64235;SDS011;50564;47.402;9.740;2023-02-11T08:47:25;22.23;;;13.30;;
64235;SDS011;50564;47.402;9.740;2023-02-11T08:52:26;17.70;;;10.57;;
64235;SDS011;50564;47.402;9.740;2023-02-11T08:57:27;19.48;;;11.18;;
64235;SDS011;50564;47.402;9.740;2023-02-11T09:02:27;18.27;;;9.93;;
64235;SDS011;50564;47.402;9.740;2023-02-11T09:07:29;14.93;;;8.88;;
64235;SDS011;50564;47.402;9.740;2023-02-11T09:12:30;13.77;;;8.98;;
64235;SDS011;50564;47.402;9.740;2023-02-11T09:17:31;12.75;;;7.70;;
64235;SDS011;50564;47.402;9.740;2023-02-11T09:22:31;14.90;;;7.20;;
64235;SDS011;50564;47.402;9.740;2023-02-11T09:27:32;15.35;;;6.53;;
64235;SDS011;50564;47.402;9.740;2023-02-11T09:32:33;10.57;;;6.70;;
64235;SDS011;50564;47.402;9.740;2023-02-11T09:37:33;9.13;;;6.18;;
64235;SDS011;50564;47.402;9.740;2023-02-11T09:47:51;16.33;;;5.68;;
64235;SDS011;50564;47.402;9.740;2023-02-11T09:58:09;11.10;;;5.43;;
64235;SDS011;50564;47.402;9.740;2023-02-11T10:13:42;13.63;;;7.72;;
64235;SDS011;50564;47.402;9.740;2023-02-11T10:23:53;18.42;;;9.50;;
64235;SDS011;50564;47.402;9.740;2023-02-11T10:28:57;12.15;;;8.63;;
64235;SDS011;50564;47.402;9.740;2023-02-11T10:34:08;13.88;;;9.30;;
64235;SDS011;50564;47.402;9.740;2023-02-11T10:39:17;17.58;;;9.65;;
64235;SDS011;50564;47.402;9.740;2023-02-11T10:49:45;9.98;;;6.78;;
64235;SDS011;50564;47.402;9.740;2023-02-11T10:59:58;12.48;;;7.68;;
64235;SDS011;50564;47.402;9.740;2023-02-11T11:05:17;10.98;;;7.13;;
64235;SDS011;50564;47.402;9.740;2023-02-11T11:15:35;15.40;;;7.78;;
64235;SDS011;50564;47.402;9.740;2023-02-11T11:20:35;13.65;;;7.93;;
64235;SDS011;50564;47.402;9.740;2023-02-11T11:25:38;13.55;;;7.40;;
64235;SDS011;50564;47.402;9.740;2023-02-11T11:30:42;11.77;;;6.85;;
64235;SDS011;50564;47.402;9.740;2023-02-11T11:35:42;11.85;;;7.72;;
64235;SDS011;50564;47.402;9.740;2023-02-11T11:40:43;11.50;;;7.60;;
64235;SDS011;50564;47.402;9.740;2023-02-11T11:45:55;15.75;;;8.43;;
64235;SDS011;50564;47.402;9.740;2023-02-11T11:51:01;18.08;;;9.27;;
64235;SDS011;50564;47.402;9.740;2023-02-11T12:34:15;14.95;;;9.90;;
64235;SDS011;50564;47.402;9.740;2023-02-11T12:55:10;17.67;;;11.95;;
64235;SDS011;50564;47.402;9.740;2023-02-11T13:00:21;23.75;;;13.93;;
64235;SDS011;50564;47.402;9.740;2023-02-11T13:10:52;19.83;;;14.48;;
64235;SDS011;50564;47.402;9.740;2023-02-11T13:31:55;20.38;;;14.20;;
64235;SDS011;50564;47.402;9.740;2023-02-11T13:37:51;22.52;;;15.10;;
64235;SDS011;50564;47.402;9.740;2023-02-11T13:42:53;19.05;;;14.45;;
64235;SDS011;50564;47.402;9.740;2023-02-11T13:47:59;21.42;;;14.65;;
64235;SDS011;50564;47.402;9.740;2023-02-11T13:53:02;22.80;;;14.90;;
64235;SDS011;50564;47.402;9.740;2023-02-11T14:08:30;21.50;;;14.15;;
64235;SDS011;50564;47.402;9.740;2023-02-11T14:23:53;24.55;;;14.82;;
64235;SDS011;50564;47.402;9.740;2023-02-11T14:45:48;19.38;;;13.98;;
64235;SDS011;50564;47.402;9.740;2023-02-11T14:50:51;23.02;;;14.75;;
64235;SDS011;50564;47.402;9.740;2023-02-11T15:01:27;22.88;;;14.45;;
64235;SDS011;50564;47.402;9.740;2023-02-11T15:06:38;24.20;;;14.40;;
64235;SDS011;50564;47.402;9.740;2023-02-11T15:11:41;22.50;;;14.50;;
64235;SDS011;50564;47.402;9.740;2023-02-11T15:16:43;27.08;;;17.55;;
64235;SDS011;50564;47.402;9.740;2023-02-11T15:21:45;21.50;;;14.45;;
64235;SDS011;50564;47.402;9.740;2023-02-11T15:26:57;37.88;;;20.33;;
64235;SDS011;50564;47.402;9.740;2023-02-11T15:32:22;26.67;;;15.80;;
64235;SDS011;50564;47.402;9.740;2023-02-11T15:37:25;23.77;;;12.90;;
64235;SDS011;50564;47.402;9.740;2023-02-11T15:42:29;27.85;;;16.58;;
64235;SDS011;50564;47.402;9.740;2023-02-11T15:47:30;26.08;;;16.25;;
64235;SDS011;50564;47.402;9.740;2023-02-11T15:52:32;23.58;;;16.67;;
64235;SDS011;50564;47.402;9.740;2023-02-11T15:57:33;23.38;;;15.10;;
64235;SDS011;50564;47.402;9.740;2023-02-11T16:02:34;24.50;;;16.70;;
64235;SDS011;50564;47.402;9.740;2023-02-11T16:07:45;24.08;;;14.75;;
64235;SDS011;50564;47.402;9.740;2023-02-11T16:17:56;25.45;;;17.15;;
64235;SDS011;50564;47.402;9.740;2023-02-11T16:22:57;22.65;;;14.68;;
64235;SDS011;50564;47.402;9.740;2023-02-11T16:27:59;25.70;;;16.10;;
64235;SDS011;50564;47.402;9.740;2023-02-11T16:33:00;131.60;;;75.43;;
64235;SDS011;50564;47.402;9.740;2023-02-11T16:38:03;86.18;;;50.60;;
64235;SDS011;50564;47.402;9.740;2023-02-11T16:43:05;54.80;;;35.28;;
64235;SDS011;50564;47.402;9.740;2023-02-11T16:48:06;76.07;;;42.58;;
64235;SDS011;50564;47.402;9.740;2023-02-11T16:53:08;26.27;;;17.30;;
64235;SDS011;50564;47.402;9.740;2023-02-11T16:58:11;20.13;;;12.02;;
64235;SDS011;50564;47.402;9.740;2023-02-11T17:03:17;19.17;;;12.65;;
64235;SDS011;50564;47.402;9.740;2023-02-11T17:08:21;26.65;;;15.15;;
64235;SDS011;50564;47.402;9.740;2023-02-11T17:13:24;26.23;;;18.30;;
64235;SDS011;50564;47.402;9.740;2023-02-11T17:18:25;50.85;;;29.48;;
64235;SDS011;50564;47.402;9.740;2023-02-11T17:23:27;48.53;;;30.65;;
64235;SDS011;50564;47.402;9.740;2023-02-11T17:28:28;39.83;;;25.42;;
64235;SDS011;50564;47.402;9.740;2023-02-11T17:33:29;48.40;;;28.42;;
64235;SDS011;50564;47.402;9.740;2023-02-11T17:38:31;117.22;;;66.32;;
64235;SDS011;50564;47.402;9.740;2023-02-11T17:43:32;194.80;;;112.53;;
64235;SDS011;50564;47.402;9.740;2023-02-11T17:48:37;102.70;;;62.17;;
64235;SDS011;50564;47.402;9.740;2023-02-11T17:53:39;102.80;;;64.07;;
64235;SDS011;50564;47.402;9.740;2023-02-11T17:58:40;84.75;;;51.45;;
64235;SDS011;50564;47.402;9.740;2023-02-11T18:03:41;71.53;;;43.97;;
64235;SDS011;50564;47.402;9.740;2023-02-11T18:08:46;18.38;;;11.90;;
64235;SDS011;50564;47.402;9.740;2023-02-11T18:13:47;18.20;;;11.18;;
64235;SDS011;50564;47.402;9.740;2023-02-11T18:18:53;19.45;;;11.63;;
64235;SDS011;50564;47.402;9.740;2023-02-11T18:23:55;28.60;;;16.40;;
64235;SDS011;50564;47.402;9.740;2023-02-11T18:28:57;31.25;;;18.35;;
64235;SDS011;50564;47.402;9.740;2023-02-11T18:34:00;21.08;;;10.27;;
64235;SDS011;50564;47.402;9.740;2023-02-11T18:39:02;16.48;;;8.93;;
64235;SDS011;50564;47.402;9.740;2023-02-11T18:44:04;16.10;;;7.90;;
64235;SDS011;50564;47.402;9.740;2023-02-11T18:49:06;11.80;;;6.10;;
64235;SDS011;50564;47.402;9.740;2023-02-11T18:54:09;10.23;;;5.63;;
64235;SDS011;50564;47.402;9.740;2023-02-11T18:59:10;12.45;;;8.02;;
64235;SDS011;50564;47.402;9.740;2023-02-11T19:04:12;10.18;;;5.97;;
64235;SDS011;50564;47.402;9.740;2023-02-11T19:09:19;10.88;;;6.22;;
64235;SDS011;50564;47.402;9.740;2023-02-11T19:19:24;10.75;;;6.15;;
64235;SDS011;50564;47.402;9.740;2023-02-11T19:24:28;8.88;;;5.03;;
64235;SDS011;50564;47.402;9.740;2023-02-11T19:29:30;7.72;;;3.90;;
64235;SDS011;50564;47.402;9.740;2023-02-11T19:34:37;8.98;;;4.57;;
64235;SDS011;50564;47.402;9.740;2023-02-11T19:39:41;8.52;;;4.05;;
64235;SDS011;50564;47.402;9.740;2023-02-11T19:44:44;8.57;;;4.72;;
64235;SDS011;50564;47.402;9.740;2023-02-11T19:49:45;8.63;;;5.28;;
64235;SDS011;50564;47.402;9.740;2023-02-11T19:54:46;8.73;;;4.97;;
64235;SDS011;50564;47.402;9.740;2023-02-11T19:59:48;8.38;;;5.28;;
64235;SDS011;50564;47.402;9.740;2023-02-11T20:04:49;10.05;;;5.07;;
64235;SDS011;50564;47.402;9.740;2023-02-11T20:09:50;15.23;;;7.63;;
64235;SDS011;50564;47.402;9.740;2023-02-11T20:14:54;14.48;;;9.63;;
64235;SDS011;50564;47.402;9.740;2023-02-11T20:19:58;18.33;;;11.60;;
64235;SDS011;50564;47.402;9.740;2023-02-11T20:25:01;21.92;;;14.13;;
64235;SDS011;50564;47.402;9.740;2023-02-11T20:30:03;18.83;;;12.32;;
64235;SDS011;50564;47.402;9.740;2023-02-11T20:35:06;15.75;;;9.32;;
64235;SDS011;50564;47.402;9.740;2023-02-11T20:40:08;13.02;;;6.85;;
64235;SDS011;50564;47.402;9.740;2023-02-11T20:45:09;10.00;;;5.68;;
64235;SDS011;50564;47.402;9.740;2023-02-11T20:50:11;7.50;;;4.50;;
64235;SDS011;50564;47.402;9.740;2023-02-11T20:55:12;8.07;;;4.90;;
64235;SDS011;50564;47.402;9.740;2023-02-11T21:00:15;8.20;;;4.47;;
64235;SDS011;50564;47.402;9.740;2023-02-11T21:05:17;8.13;;;4.03;;
64235;SDS011;50564;47.402;9.740;2023-02-11T21:10:21;5.57;;;3.50;;
64235;SDS011;50564;47.402;9.740;2023-02-11T21:15:23;7.13;;;3.40;;
64235;SDS011;50564;47.402;9.740;2023-02-11T21:20:24;6.95;;;3.60;;
64235;SDS011;50564;47.402;9.740;2023-02-11T21:25:26;8.40;;;4.50;;
64235;SDS011;50564;47.402;9.740;2023-02-11T21:30:27;7.63;;;4.10;;
64235;SDS011;50564;47.402;9.740;2023-02-11T21:35:30;6.78;;;3.95;;
64235;SDS011;50564;47.402;9.740;2023-02-11T21:40:32;6.45;;;4.28;;
64235;SDS011;50564;47.402;9.740;2023-02-11T21:45:40;5.38;;;3.38;;
64235;SDS011;50564;47.402;9.740;2023-02-11T21:50:46;7.50;;;3.60;;
64235;SDS011;50564;47.402;9.740;2023-02-11T21:55:47;7.28;;;5.03;;
64235;SDS011;50564;47.402;9.740;2023-02-11T22:00:50;10.05;;;6.93;;
64235;SDS011;50564;47.402;9.740;2023-02-11T22:05:51;11.98;;;7.78;;
64235;SDS011;50564;47.402;9.740;2023-02-11T22:10:52;11.45;;;7.55;;
64235;SDS011;50564;47.402;9.740;2023-02-11T22:16:03;15.23;;;7.43;;
64235;SDS011;50564;47.402;9.740;2023-02-11T22:21:06;10.55;;;7.10;;
64235;SDS011;50564;47.402;9.740;2023-02-11T22:26:10;8.13;;;4.50;;
64235;SDS011;50564;47.402;9.740;2023-02-11T22:31:17;8.13;;;4.60;;
64235;SDS011;50564;47.402;9.740;2023-02-11T22:36:20;8.15;;;4.88;;
64235;SDS011;50564;47.402;9.740;2023-02-11T22:41:22;7.43;;;3.38;;
64235;SDS011;50564;47.402;9.740;2023-02-11T22:46:23;6.32;;;3.67;;
64235;SDS011;50564;47.402;9.740;2023-02-11T22:51:25;6.47;;;2.70;;
64235;SDS011;50564;47.402;9.740;2023-02-11T22:56:27;6.03;;;3.25;;
64235;SDS011;50564;47.402;9.740;2023-02-11T23:01:29;6.85;;;2.83;;
64235;SDS011;50564;47.402;9.740;2023-02-11T23:06:30;5.90;;;3.25;;
64235;SDS011;50564;47.402;9.740;2023-02-11T23:11:31;6.97;;;3.13;;
64235;SDS011;50564;47.402;9.740;2023-02-11T23:16:32;4.97;;;2.78;;
64235;SDS011;50564;47.402;9.740;2023-02-11T23:21:34;6.70;;;3.38;;
64235;SDS011;50564;47.402;9.740;2023-02-11T23:26:37;6.28;;;2.80;;
64235;SDS011;50564;47.402;9.740;2023-02-11T23:31:39;3.60;;;2.05;;
64235;SDS011;50564;47.402;9.740;2023-02-11T23:36:42;3.83;;;2.05;;
64235;SDS011;50564;47.402;9.740;2023-02-11T23:41:43;4.15;;;2.65;;
64235;SDS011;50564;47.402;9.740;2023-02-11T23:46:44;3.92;;;2.00;;
64235;SDS011;50564;47.402;9.740;2023-02-11T23:51:45;4.57;;;2.00;;
64235;SDS011;50564;47.402;9.740;2023-02-11T23:56:45;3.95;;;1.70;;
